Time;durP1;ratioP1;P1;durP2;ratioP2;P2;SDS_P1;SDS_P2;PMS_P1;PMS_P2;Temp;Humidity;BMP_temperature;BMP_pressure;BME280_temperature;BME280_humidity;BME280_pressure;Samples;Min_cycle;Max_cycle;Signal;HPM_P1;HPM_P2
2023/10/12 00:01:57;;;;;;;0.00;0.00;;;;;;;9.80;80.94;100802.84;7353205;19;20005;-60
2023/10/12 00:05:17;;;;;;;0.08;0.08;;;;;;;9.80;80.96;100808.06;7360929;19;20407;-60
2023/10/12 00:07:38;;;;;;;0.08;0.08;;;;;;;9.78;80.57;100807.22;7356087;19;20006;-60
2023/10/12 00:12:44;;;;;;;0.10;0.10;;;;;;;9.69;80.81;100786.56;7360727;19;20024;-60
2023/10/12 00:15:28;;;;;;;0.10;0.10;;;;;;;9.75;80.51;100799.47;7351267;19;20015;-61
2023/10/12 00:18:03;;;;;;;0.00;0.00;;;;;;;9.75;80.74;100794.25;7356560;19;20007;-61
2023/10/12 00:22:54;;;;;;;0.10;0.10;;;;;;;9.72;80.54;100805.59;7357064;19;20070;-60
2023/10/12 00:25:20;;;;;;;0.00;0.00;;;;;;;9.70;80.81;100801.31;7364314;19;20109;-62
2023/10/12 00:27:47;;;;;;;0.00;0.00;;;;;;;9.68;80.52;100795.22;7354229;19;20495;-60
2023/10/12 00:30:14;;;;;;;0.00;0.00;;;;;;;9.67;80.65;100788.31;7357686;19;20010;-60
2023/10/12 00:32:41;;;;;;;0.00;0.00;;;;;;;9.61;80.72;100782.31;7356202;19;20014;-61
2023/10/12 00:35:10;;;;;;;0.00;0.00;;;;;;;9.68;81.03;100795.22;7330135;19;20018;-60
2023/10/12 00:37:36;;;;;;;0.00;0.00;;;;;;;9.56;80.80;100778.06;7362756;19;20021;-60
2023/10/12 00:40:22;;;;;;;0.00;0.00;;;;;;;9.66;81.07;100791.81;7356717;19;20011;-60
2023/10/12 00:42:51;;;;;;;0.08;0.08;;;;;;;9.59;80.58;100783.25;7358064;19;20011;-60
2023/10/12 00:45:19;;;;;;;0.10;0.10;;;;;;;9.52;80.92;100774.63;7362446;19;20035;-60
2023/10/12 00:47:45;;;;;;;0.00;0.00;;;;;;;9.30;81.04;100740.28;7353606;19;20010;-60
2023/10/12 00:50:12;;;;;;;0.10;0.10;;;;;;;9.65;80.91;100803.13;7363993;19;20035;-60
2023/10/12 00:52:46;;;;;;;0.00;0.00;;;;;;;9.65;80.90;100803.13;7362293;19;20539;-60
2023/10/12 00:55:21;;;;;;;0.10;0.10;;;;;;;9.65;81.25;100808.34;7360880;19;20007;-60
2023/10/12 00:57:50;;;;;;;0.00;0.00;;;;;;;9.65;81.13;100803.97;7358964;19;20503;-60
2023/10/12 01:00:16;;;;;;;0.08;0.08;;;;;;;9.56;81.01;100778.91;7359261;19;20577;-61
2023/10/12 01:02:44;;;;;;;0.03;0.03;;;;;;;9.60;81.20;100795.38;7359585;19;20018;-60
2023/10/12 01:05:10;;;;;;;0.00;0.00;;;;;;;9.63;81.25;100790.13;7355515;19;20031;-60
2023/10/12 01:07:36;;;;;;;0.10;0.10;;;;;;;9.55;80.86;100782.41;7361093;19;20018;-60
2023/10/12 01:10:08;;;;;;;0.00;0.00;;;;;;;9.64;80.97;100783.16;7349636;19;20028;-60
2023/10/12 01:12:34;;;;;;;0.03;0.03;;;;;;;9.66;81.32;100781.38;7359684;19;20010;-61
2023/10/12 01:15:09;;;;;;;0.08;0.08;;;;;;;9.65;81.00;100777.06;7360176;19;20019;-60
2023/10/12 01:17:35;;;;;;;0.10;0.10;;;;;;;9.67;80.88;100776.13;7354833;19;20015;-60
2023/10/12 01:20:12;;;;;;;0.00;0.00;;;;;;;9.67;80.96;100778.72;7363254;19;20022;-60
2023/10/12 01:22:40;;;;;;;0.00;0.00;;;;;;;9.59;80.72;100768.44;7363368;19;20095;-60
2023/10/12 01:25:51;;;;;;;0.00;0.00;;;;;;;9.64;80.71;100781.41;7369862;19;20002;-61
2023/10/12 01:27:53;;;;;;;0.00;0.00;;;;;;;9.65;80.82;100788.34;7365396;19;20014;-60
2023/10/12 01:30:27;;;;;;;0.00;0.00;;;;;;;9.65;80.78;100780.53;7362497;19;20010;-60
2023/10/12 01:32:58;;;;;;;0.00;0.00;;;;;;;9.53;80.82;100762.47;7362364;19;20019;-60
2023/10/12 01:35:32;;;;;;;0.00;0.00;;;;;;;9.62;80.60;100786.63;7366858;19;20071;-61
2023/10/12 01:38:01;;;;;;;0.00;0.00;;;;;;;9.62;80.49;100791.84;7363201;19;20010;-60
2023/10/12 01:43:13;;;;;;;0.08;0.08;;;;;;;9.31;80.51;100735.91;7373603;19;20777;-60
2023/10/12 01:45:42;;;;;;;0.10;0.10;;;;;;;9.55;80.41;100792.84;7359500;19;20030;-60
2023/10/12 01:48:17;;;;;;;0.10;0.10;;;;;;;9.52;80.38;100792.03;7366164;19;20006;-60
2023/10/12 01:50:47;;;;;;;0.00;0.00;;;;;;;9.49;80.68;100789.50;7363089;19;20015;-60
2023/10/12 01:55:52;;;;;;;0.00;0.00;;;;;;;9.46;80.15;100779.97;7366693;19;20010;-60
2023/10/12 01:58:20;;;;;;;0.10;0.10;;;;;;;9.43;80.57;100787.84;7358928;19;20011;-60
2023/10/12 02:00:51;;;;;;;0.10;0.10;;;;;;;9.40;80.55;100790.50;7373676;19;20018;-61
2023/10/12 02:05:59;;;;;;;0.00;0.00;;;;;;;9.37;80.40;100777.50;7316962;19;20011;-60
2023/10/12 02:09:15;;;;;;;0.00;0.00;;;;;;;9.34;80.12;100777.56;7364893;19;20084;-60
2023/10/12 02:13:51;;;;;;;0.10;0.10;;;;;;;9.31;80.38;100780.22;7362618;19;20106;-60
2023/10/12 02:16:37;;;;;;;0.10;0.10;;;;;;;9.24;80.62;100768.19;7366568;19;20027;-60
2023/10/12 02:19:04;;;;;;;0.00;0.00;;;;;;;9.29;80.54;100784.59;7371795;19;20101;-61
2023/10/12 02:21:33;;;;;;;0.10;0.10;;;;;;;9.27;80.53;100783.75;7366092;19;20010;-60
2023/10/12 02:24:11;;;;;;;0.03;0.03;;;;;;;9.27;80.54;100791.56;7365885;19;20749;-60
2023/10/12 02:26:39;;;;;;;0.10;0.10;;;;;;;9.10;80.60;100757.97;7372076;19;20396;-60
2023/10/12 02:31:46;;;;;;;0.10;0.10;;;;;;;9.23;80.36;100793.38;7365737;19;19998;-60
2023/10/12 02:34:17;;;;;;;0.00;0.00;;;;;;;9.09;80.38;100777.97;7367354;19;21100;-60
2023/10/12 02:39:37;;;;;;;0.00;0.00;;;;;;;9.13;80.05;100789.19;7362537;19;20043;-60
2023/10/12 02:45:29;;;;;;;;;;;;;;;9.09;79.33;100785.78;7365796;19;20007;-60
2023/10/12 02:47:30;;;;;;;0.10;0.10;;;;;;;8.83;80.09;100754.91;7362834;19;20739;-60
2023/10/12 02:50:20;;;;;;;0.10;0.10;;;;;;;9.00;79.96;100788.50;7363412;19;20082;-60
2023/10/12 02:52:46;;;;;;;0.00;0.00;;;;;;;8.97;79.97;100793.78;7359447;19;20804;-60
2023/10/12 02:57:54;;;;;;;0.08;0.08;;;;;;;8.92;80.45;100785.19;7367336;19;20359;-60
2023/10/12 03:00:45;;;;;;;0.10;0.10;;;;;;;8.76;79.71;100768.88;7363644;19;20344;-60
2023/10/12 03:03:25;;;;;;;0.10;0.10;;;;;;;8.84;80.50;100790.47;7359208;19;20019;-60
2023/10/12 03:05:52;;;;;;;0.00;0.00;;;;;;;8.78;80.46;100784.50;7363082;19;20049;-60
2023/10/12 03:08:20;;;;;;;0.00;0.00;;;;;;;8.79;80.26;100788.81;7365879;19;20011;-60
2023/10/12 03:13:36;;;;;;;0.00;0.00;;;;;;;8.64;80.13;100763.88;7364132;19;20052;-61
2023/10/12 03:16:14;;;;;;;0.10;0.10;;;;;;;8.55;80.23;100756.16;7335607;19;20143;-60
2023/10/12 03:18:40;;;;;;;0.00;0.00;;;;;;;8.66;80.29;100784.66;7362646;19;20015;-60
2023/10/12 03:21:11;;;;;;;0.00;0.00;;;;;;;8.46;80.49;100754.53;7367437;19;20108;-60
2023/10/12 03:23:41;;;;;;;0.05;0.05;;;;;;;8.45;79.92;100758.03;7364563;19;20010;-61
2023/10/12 03:26:26;;;;;;;0.00;0.00;;;;;;;8.58;80.27;100782.19;7365603;19;20023;-61
2023/10/12 03:29:18;;;;;;;0.00;0.00;;;;;;;8.57;80.22;100789.13;7366275;19;20744;-60
2023/10/12 03:37:01;;;;;;;0.00;0.00;;;;;;;8.33;80.33;100777.25;7364214;19;20026;-60
2023/10/12 03:39:28;;;;;;;0.00;0.00;;;;;;;8.28;80.33;100767.78;7366058;19;20038;-60
2023/10/12 03:41:55;;;;;;;0.00;0.00;;;;;;;8.42;80.04;100789.31;7338253;19;20045;-60
2023/10/12 03:47:01;;;;;;;0.10;0.10;;;;;;;8.36;80.26;100791.97;7365945;19;20586;-60
2023/10/12 03:51:58;;;;;;;0.00;0.00;;;;;;;8.29;80.03;100767.75;7366864;19;20010;-60
2023/10/12 03:54:29;;;;;;;0.00;0.00;;;;;;;8.30;80.46;100779.00;7364698;19;20043;-60
2023/10/12 03:57:19;;;;;;;0.10;0.10;;;;;;;8.21;79.97;100772.19;7366093;19;20007;-60
2023/10/12 04:02:56;;;;;;;0.10;0.10;;;;;;;8.21;80.39;100800.81;7361728;19;20015;-60
2023/10/12 04:08:00;;;;;;;0.00;0.00;;;;;;;8.12;79.95;100781.84;7365629;19;20010;-61
2023/10/12 04:18:40;;;;;;;0.10;0.10;;;;;;;8.06;80.03;100785.38;7362774;19;20015;-60
2023/10/12 04:21:06;;;;;;;0.10;0.10;;;;;;;7.93;80.41;100769.03;7362006;19;20018;-60
2023/10/12 04:23:44;;;;;;;0.03;0.03;;;;;;;7.99;80.26;100787.16;7362686;19;20014;-60
2023/10/12 04:28:55;;;;;;;0.00;0.00;;;;;;;7.93;79.93;100778.56;7363579;19;20487;-60
2023/10/12 04:31:20;;;;;;;0.00;0.00;;;;;;;7.82;80.38;100765.69;7356981;19;20014;-60
2023/10/12 04:46:59;;;;;;;0.00;0.00;;;;;;;7.82;79.55;100801.22;7364970;19;19926;-60
2023/10/12 04:52:16;;;;;;;0.10;0.10;;;;;;;7.77;80.44;100804.72;7361069;19;20074;-60
2023/10/12 04:57:32;;;;;;;0.00;0.00;;;;;;;7.69;80.54;100793.53;7363929;19;20031;-60
2023/10/12 05:09:50;;;;;;;0.00;0.00;;;;;;;7.63;80.49;100796.19;7371136;19;20003;-60
2023/10/12 05:12:23;;;;;;;0.00;0.00;;;;;;;7.63;80.40;100796.19;7364003;19;20039;-60
2023/10/12 05:14:55;;;;;;;0.00;0.00;;;;;;;7.61;80.08;100802.28;7366338;19;20018;-60
2023/10/12 05:17:21;;;;;;;0.00;0.00;;;;;;;7.49;80.60;100782.47;7374809;19;20511;-61
2023/10/12 05:19:47;;;;;;;0.03;0.03;;;;;;;7.58;80.58;100800.56;7368357;19;20539;-61
2023/10/12 05:22:13;;;;;;;0.10;0.10;;;;;;;7.57;80.16;100801.44;7369355;19;20006;-60
2023/10/12 05:24:38;;;;;;;0.10;0.10;;;;;;;7.35;80.46;100759.22;7365184;19;20019;-61
2023/10/12 05:27:19;;;;;;;0.00;0.00;;;;;;;7.56;80.30;100796.28;7370238;19;20034;-60
2023/10/12 05:29:51;;;;;;;0.00;0.00;;;;;;;7.39;80.30;100784.25;7355752;19;20502;-61
2023/10/12 05:37:37;;;;;;;0.10;0.10;;;;;;;7.48;80.02;100817.97;7369297;19;20014;-60
2023/10/12 05:39:59;;;;;;;0.00;0.00;;;;;;;7.50;80.34;100830.94;7361049;19;20014;-61
2023/10/12 05:42:25;;;;;;;0.10;0.10;;;;;;;7.40;80.48;100817.19;7365767;19;20010;-60
2023/10/12 05:44:53;;;;;;;0.00;0.00;;;;;;;7.50;80.69;100831.84;7368719;19;20791;-60
2023/10/12 05:47:31;;;;;;;0.08;0.08;;;;;;;7.52;80.68;100835.28;7360997;19;20006;-61
2023/10/12 05:50:00;;;;;;;0.00;0.00;;;;;;;7.49;81.01;100824.03;7369591;19;20014;-60
2023/10/12 05:52:25;;;;;;;0.03;0.03;;;;;;;7.59;81.33;100835.22;7366923;19;20014;-60
2023/10/12 05:55:07;;;;;;;0.00;0.00;;;;;;;7.57;80.86;100821.38;7369654;19;20045;-60
2023/10/12 05:57:34;;;;;;;0.00;0.00;;;;;;;7.63;81.11;100835.19;7357350;19;20461;-60
2023/10/12 05:59:59;;;;;;;0.05;0.05;;;;;;;7.68;80.94;100835.13;7365120;19;20017;-60
2023/10/12 06:02:28;;;;;;;0.00;0.00;;;;;;;7.64;81.13;100829.09;7367687;19;20011;-60
2023/10/12 06:04:54;;;;;;;0.10;0.10;;;;;;;7.64;81.05;100821.31;7362523;19;20072;-60
2023/10/12 06:07:20;;;;;;;0.10;0.10;;;;;;;7.44;81.29;100785.09;7365521;19;20014;-59
2023/10/12 06:09:45;;;;;;;0.00;0.00;;;;;;;7.85;81.10;100838.44;7364019;19;20060;-60
2023/10/12 06:12:14;;;;;;;0.00;0.00;;;;;;;7.80;81.02;100816.81;7360757;19;20007;-60
2023/10/12 06:14:52;;;;;;;0.05;0.05;;;;;;;7.75;80.72;100810.81;7363328;19;20098;-62
2023/10/12 06:17:28;;;;;;;0.08;0.08;;;;;;;7.88;80.65;100828.03;7369145;19;20014;-60
2023/10/12 06:19:55;;;;;;;0.00;0.00;;;;;;;7.86;80.60;100818.53;7371757;19;20013;-60
2023/10/12 06:22:21;;;;;;;0.00;0.00;;;;;;;7.87;80.88;100821.09;7361874;19;20010;-61
2023/10/12 06:24:49;;;;;;;0.05;0.05;;;;;;;7.83;80.81;100818.53;7358770;19;20725;-60
2023/10/12 06:29:43;;;;;;;0.00;0.00;;;;;;;7.85;80.66;100828.03;7362794;19;20731;-60
2023/10/12 06:32:17;;;;;;;0.10;0.10;;;;;;;7.78;80.47;100821.19;7364480;19;20006;-60
2023/10/12 06:34:42;;;;;;;0.10;0.10;;;;;;;7.78;80.25;100816.84;7363682;19;20013;-60
2023/10/12 06:37:30;;;;;;;0.03;0.03;;;;;;;7.78;80.25;100816.00;7365138;19;20003;-61
2023/10/12 06:40:37;;;;;;;0.10;0.10;;;;;;;7.68;80.04;100806.56;7362682;19;20023;-61
2023/10/12 06:45:49;;;;;;;0.10;0.10;;;;;;;7.62;79.94;100819.59;7362807;19;20423;-60
2023/10/12 06:51:03;;;;;;;0.08;0.08;;;;;;;7.52;80.05;100814.47;7362309;19;20098;-61
2023/10/12 06:53:34;;;;;;;0.00;0.00;;;;;;;7.48;80.16;100812.78;7366367;19;20101;-60
2023/10/12 06:56:13;;;;;;;0.10;0.10;;;;;;;6.55;79.99;100675.03;7362784;19;20035;-60
2023/10/12 06:58:38;;;;;;;0.10;0.10;;;;;;;7.41;80.16;100813.72;7365581;19;20003;-60
2023/10/12 07:01:27;;;;;;;0.10;0.10;;;;;;;7.44;80.29;100820.59;7363984;19;20007;-61
2023/10/12 07:03:54;;;;;;;0.05;0.05;;;;;;;7.35;79.86;100813.78;7358174;19;20002;-60
2023/10/12 07:06:20;;;;;;;0.00;0.00;;;;;;;7.38;80.13;100820.66;7363570;19;20002;-61
2023/10/12 07:08:50;;;;;;;0.00;0.00;;;;;;;7.22;79.85;100804.34;7366223;19;20009;-60
2023/10/12 07:11:20;;;;;;;0.00;0.00;;;;;;;7.36;80.20;100833.66;7354222;19;20007;-60
2023/10/12 07:13:45;;;;;;;0.00;0.00;;;;;;;7.33;80.35;100841.47;7360240;19;20014;-61
2023/10/12 07:16:15;;;;;;;0.00;0.00;;;;;;;7.31;80.04;100835.44;7364527;19;20047;-60
2023/10/12 07:18:44;;;;;;;0.00;0.00;;;;;;;7.31;80.39;100840.63;7366398;19;20446;-61
2023/10/12 07:21:22;;;;;;;0.10;0.10;;;;;;;7.28;80.44;100825.91;7370936;19;20475;-60
2023/10/12 07:23:52;;;;;;;0.00;0.00;;;;;;;7.29;79.95;100829.38;7371201;19;20090;-61
2023/10/12 07:26:21;;;;;;;0.00;0.00;;;;;;;7.27;79.96;100828.53;7361466;19;20210;-61
2023/10/12 07:28:49;;;;;;;0.03;0.03;;;;;;;7.26;80.27;100832.88;7361223;19;20043;-60
2023/10/12 07:39:20;;;;;;;0.00;0.00;;;;;;;7.31;80.32;100844.97;7348682;19;20015;-60
2023/10/12 07:42:01;;;;;;;0.00;0.00;;;;;;;7.15;80.63;100815.66;7361648;19;20344;-61
2023/10/12 07:44:28;;;;;;;0.00;0.00;;;;;;;7.10;80.24;100801.84;7327447;19;20424;-60
2023/10/12 07:46:57;;;;;;;0.00;0.00;;;;;;;7.34;80.66;100835.41;7329856;19;20118;-61
2023/10/12 07:49:40;;;;;;;0.00;0.00;;;;;;;7.34;80.35;100832.81;7362941;19;20014;-61
2023/10/12 07:57:17;;;;;;;0.00;0.00;;;;;;;7.40;80.75;100843.19;7355638;19;20019;-60
2023/10/12 08:24:10;;;;;;;0.10;0.10;;;;;;;8.99;79.45;100844.09;7340902;19;20021;-61
2023/10/12 08:32:55;;;;;;;0.10;0.10;;;;;;;9.81;78.20;100841.09;7365985;19;20518;-60
2023/10/12 08:35:10;;;;;;;0.10;0.10;;;;;;;10.09;77.41;100842.31;7371581;19;20011;-61
2023/10/12 08:37:36;;;;;;;0.00;0.00;;;;;;;10.37;77.30;100839.22;7371725;19;20018;-61
2023/10/12 08:40:18;;;;;;;0.10;0.10;;;;;;;10.64;76.36;100837.78;7366622;19;20010;-60
2023/10/12 08:43:34;;;;;;;0.10;0.10;;;;;;;10.90;75.98;100834.66;7378197;19;20021;-61
2023/10/12 08:45:37;;;;;;;0.10;0.10;;;;;;;11.22;75.48;100833.91;7372956;19;20006;-61
2023/10/12 08:48:03;;;;;;;0.10;0.10;;;;;;;11.49;75.19;100835.00;7376260;19;20021;-61
2023/10/12 08:50:58;;;;;;;0.00;0.00;;;;;;;11.74;74.60;100837.88;7373474;19;19995;-61
2023/10/12 08:53:26;;;;;;;0.10;0.10;;;;;;;12.08;74.17;100832.66;7374759;19;20026;-61
2023/10/12 08:55:52;;;;;;;0.10;0.10;;;;;;;12.33;73.63;100826.75;7370277;19;20118;-61
2023/10/12 08:58:39;;;;;;;0.10;0.10;;;;;;;12.65;73.07;100829.31;7370393;19;20113;-61
2023/10/12 09:01:10;;;;;;;0.10;0.10;;;;;;;12.90;72.46;100823.34;7374331;19;20010;-61
2023/10/12 09:03:44;;;;;;;0.00;0.00;;;;;;;13.16;71.92;100825.16;7370637;19;20025;-61
2023/10/12 09:08:56;;;;;;;0.10;0.10;;;;;;;13.74;70.33;100818.91;7363399;19;20922;-61
2023/10/12 09:11:29;;;;;;;0.10;0.10;;;;;;;13.97;70.39;100804.13;7371902;19;20014;-61
2023/10/12 09:13:57;;;;;;;0.10;0.10;;;;;;;14.31;69.70;100808.19;7364806;19;20474;-61
2023/10/12 09:16:23;;;;;;;0.10;0.10;;;;;;;14.43;68.87;100798.06;7372380;19;20496;-62
2023/10/12 09:18:56;;;;;;;0.10;0.10;;;;;;;14.85;68.29;100814.94;7372835;19;20006;-61
2023/10/12 09:24:15;;;;;;;0.10;0.10;;;;;;;15.41;66.77;100817.06;7377155;19;20373;-61
2023/10/12 09:26:49;;;;;;;0.00;0.00;;;;;;;15.73;66.14;100819.28;7374941;19;20014;-61
2023/10/12 09:29:40;;;;;;;0.10;0.10;;;;;;;16.00;65.29;100811.97;7372632;19;20010;-61
2023/10/12 09:32:16;;;;;;;0.10;0.10;;;;;;;16.30;64.89;100809.75;7379804;19;20014;-61
2023/10/12 09:37:22;;;;;;;0.10;0.10;;;;;;;16.92;63.59;100817.53;7365743;19;19995;-61
2023/10/12 09:39:48;;;;;;;0.10;0.10;;;;;;;17.16;62.93;100808.44;7359363;19;20017;-61
2023/10/12 09:42:27;;;;;;;0.10;0.10;;;;;;;17.58;64.91;100812.53;7373929;19;20014;-61
2023/10/12 09:45:01;;;;;;;0.10;0.10;;;;;;;17.71;62.07;100800.44;7363009;19;20494;-62
2023/10/12 09:47:43;;;;;;;0.10;0.10;;;;;;;17.98;61.61;100807.91;7363045;19;20340;-61
2023/10/12 09:50:13;;;;;;;0.10;0.10;;;;;;;18.26;61.25;100805.53;7371194;19;20022;-61
2023/10/12 09:52:46;;;;;;;0.10;0.10;;;;;;;18.61;61.39;100805.44;7374163;19;20412;-61
2023/10/12 09:55:24;;;;;;;0.10;0.10;;;;;;;18.80;60.45;100814.09;7371951;19;20015;-61
2023/10/12 09:57:51;;;;;;;0.10;0.10;;;;;;;19.09;60.13;100816.91;7368652;19;20011;-60
2023/10/12 10:00:53;;;;;;;;;;;;;;;19.59;64.89;100813.16;7361885;19;20561;-61
2023/10/12 10:03:17;;;;;;;0.10;0.10;;;;;;;19.69;59.35;100809.06;7364102;19;19919;-61
2023/10/12 10:05:54;;;;;;;0.10;0.10;;;;;;;20.03;60.21;100807.06;7362478;19;20649;-61
2023/10/12 10:08:26;;;;;;;0.13;0.13;;;;;;;20.16;58.20;100800.06;7364775;19;20091;-61
2023/10/12 10:10:57;;;;;;;0.10;0.10;;;;;;;20.31;58.53;100791.16;7363089;19;20014;-61
2023/10/12 10:13:49;;;;;;;0.03;0.03;;;;;;;20.64;61.35;100769.66;7357892;19;20478;-61
2023/10/12 10:16:17;;;;;;;0.10;0.10;;;;;;;20.95;57.98;100803.06;7365384;19;20794;-61
2023/10/12 10:19:10;;;;;;;0.00;0.00;;;;;;;21.40;59.70;100800.19;7362182;19;20007;-61
2023/10/12 10:21:38;;;;;;;0.20;0.20;;;;;;;21.57;57.17;100796.41;7355728;19;20017;-61
2023/10/12 10:24:12;;;;;;;0.10;0.10;;;;;;;21.98;58.50;100796.25;7364767;19;20073;-62
2023/10/12 10:26:39;;;;;;;0.10;0.10;;;;;;;22.19;56.72;100793.94;7363343;19;20074;-61
2023/10/12 10:29:04;;;;;;;0.10;0.10;;;;;;;22.40;55.97;100794.25;7365734;19;20663;-61
2023/10/12 10:31:41;;;;;;;0.10;0.10;;;;;;;22.81;57.96;100788.63;7362339;19;20022;-60
2023/10/12 10:34:09;;;;;;;0.10;0.10;;;;;;;22.97;55.29;100793.72;7362927;19;20113;-62
2023/10/12 10:36:35;;;;;;;0.10;0.10;;;;;;;23.20;55.06;100784.03;7361868;19;20341;-61
2023/10/12 10:41:54;;;;;;;0.10;0.10;;;;;;;23.77;54.96;100785.94;7363891;19;20015;-61
2023/10/12 10:44:22;;;;;;;0.10;0.10;;;;;;;24.03;54.52;100784.81;7348392;19;20013;-61
2023/10/12 10:46:54;;;;;;;0.10;0.10;;;;;;;24.43;56.15;100780.84;7364888;19;20712;-61
2023/10/12 10:49:21;;;;;;;0.10;0.10;;;;;;;24.59;54.04;100771.50;7360688;19;20578;-61
2023/10/12 10:51:48;;;;;;;0.17;0.17;;;;;;;24.88;53.65;100776.28;7363886;19;20078;-61
2023/10/12 10:54:20;;;;;;;0.10;0.10;;;;;;;25.25;55.20;100779.50;7358887;19;20006;-61
2023/10/12 10:56:49;;;;;;;0.10;0.10;;;;;;;25.40;53.50;100779.22;7364812;19;20583;-61
2023/10/12 10:59:18;;;;;;;0.10;0.10;;;;;;;25.66;53.34;100763.63;7359078;19;20428;-61
2023/10/12 11:01:52;;;;;;;0.13;0.13;;;;;;;25.93;52.91;100773.81;7363706;19;20042;-61
2023/10/12 11:04:41;;;;;;;0.10;0.10;;;;;;;26.22;53.20;100776.66;7361267;19;19998;-61
2023/10/12 11:07:15;;;;;;;0.10;0.10;;;;;;;26.62;55.32;100766.84;7359793;19;20790;-61
2023/10/12 11:12:26;;;;;;;0.00;0.00;;;;;;;26.91;52.68;100758.84;7370878;19;20014;-61
2023/10/12 11:18:00;;;;;;;0.00;0.00;;;;;;;27.34;52.22;100751.44;7360765;19;20014;-61
2023/10/12 11:20:38;;;;;;;0.10;0.10;;;;;;;27.53;52.88;100751.41;7363586;19;20022;-61
2023/10/12 11:23:07;;;;;;;0.00;0.00;;;;;;;27.75;52.79;100749.44;7366504;19;20010;-61
2023/10/12 11:25:39;;;;;;;0.03;0.03;;;;;;;27.94;52.59;100754.75;7364307;19;20730;-60
2023/10/12 11:28:22;;;;;;;0.10;0.10;;;;;;;28.38;55.58;100757.69;7358313;19;20367;-62
2023/10/12 11:30:49;;;;;;;0.00;0.00;;;;;;;28.30;52.87;100749.53;7362493;19;20027;-61
2023/10/12 11:33:23;;;;;;;0.08;0.08;;;;;;;28.67;54.63;100750.34;7363881;19;20090;-61
2023/10/12 11:35:48;;;;;;;0.00;0.00;;;;;;;28.68;52.39;100749.34;7352962;19;20366;-61
2023/10/12 11:38:19;;;;;;;0.00;0.00;;;;;;;28.81;53.13;100748.13;7361854;19;20007;-62
2023/10/12 11:40:52;;;;;;;0.10;0.10;;;;;;;29.00;52.38;100742.66;7356101;19;20014;-62
2023/10/12 11:43:29;;;;;;;0.00;0.00;;;;;;;29.13;52.51;100732.34;7360180;19;20107;-62
2023/10/12 11:46:01;;;;;;;0.10;0.10;;;;;;;29.45;55.20;100737.19;7360475;19;20011;-61
2023/10/12 11:48:28;;;;;;;0.08;0.08;;;;;;;29.47;53.34;100737.00;7359465;19;20014;-61
2023/10/12 11:50:55;;;;;;;0.10;0.10;;;;;;;29.52;50.66;100721.25;7361750;19;20011;-60
2023/10/12 11:53:20;;;;;;;;;;;;;;;30.10;57.22;100726.00;7362873;19;20442;-61
2023/10/12 11:55:49;;;;;;;0.00;0.00;;;;;;;29.95;52.94;100724.91;7359488;19;20356;-61
2023/10/12 11:58:19;;;;;;;0.00;0.00;;;;;;;30.04;52.95;100726.63;7358263;19;20010;-61
2023/10/12 12:00:51;;;;;;;0.00;0.00;;;;;;;30.05;54.39;100725.63;7360711;19;20031;-61
2023/10/12 12:03:17;;;;;;;0.00;0.00;;;;;;;29.88;53.35;100726.56;7361125;19;20697;-61
2023/10/12 12:05:50;;;;;;;0.10;0.10;;;;;;;29.75;53.97;100708.13;7358102;19;20927;-61
2023/10/12 12:08:17;;;;;;;0.10;0.10;;;;;;;29.64;54.68;100703.84;7360551;19;20014;-61
2023/10/12 12:10:54;;;;;;;0.10;0.10;;;;;;;29.45;55.32;100693.25;7354212;19;20011;-60
2023/10/12 12:13:20;;;;;;;0.10;0.10;;;;;;;29.44;56.20;100696.97;7359209;19;20110;-61
2023/10/12 12:15:47;;;;;;;0.10;0.10;;;;;;;29.39;56.64;100696.59;7359647;19;20021;-61
2023/10/12 12:18:18;;;;;;;0.08;0.08;;;;;;;29.39;56.99;100688.50;7355636;19;20022;-61
2023/10/12 12:20:44;;;;;;;0.00;0.00;;;;;;;29.35;57.27;100677.25;7358994;19;20105;-61
2023/10/12 12:23:11;;;;;;;0.00;0.00;;;;;;;29.31;57.51;100675.03;7358500;19;22347;-61
2023/10/12 12:25:39;;;;;;;0.00;0.00;;;;;;;29.14;58.01;100671.34;7362498;19;20025;-61
2023/10/12 12:28:13;;;;;;;0.00;0.00;;;;;;;29.01;58.24;100669.06;7360485;19;20006;-60
2023/10/12 12:33:36;;;;;;;0.10;0.10;;;;;;;28.84;59.36;100668.06;7354016;19;20025;-61
2023/10/12 12:36:10;;;;;;;0.00;0.00;;;;;;;28.91;55.63;100660.22;7357696;19;20604;-60
2023/10/12 12:41:23;;;;;;;0.00;0.00;;;;;;;28.93;57.67;100621.41;7357723;19;20010;-60
2023/10/12 12:43:49;;;;;;;0.10;0.10;;;;;;;29.12;57.29;100631.16;7363780;19;20015;-60
2023/10/12 12:46:16;;;;;;;0.00;0.00;;;;;;;29.19;56.20;100629.53;7354023;19;20041;-60
2023/10/12 12:48:45;;;;;;;0.10;0.10;;;;;;;29.14;56.75;100621.09;7346322;19;20469;-61
2023/10/12 12:51:13;;;;;;;0.00;0.00;;;;;;;29.10;58.24;100624.28;7357782;19;20062;-60
2023/10/12 12:53:39;;;;;;;0.10;0.10;;;;;;;29.12;55.47;100633.00;7360721;19;20007;-60
2023/10/12 12:56:05;;;;;;;0.10;0.10;;;;;;;28.99;54.07;100611.91;7362442;19;20078;-61
2023/10/12 12:58:36;;;;;;;0.03;0.03;;;;;;;29.10;54.45;100625.13;7360849;19;20023;-61
2023/10/12 13:01:01;;;;;;;0.10;0.10;;;;;;;29.07;58.03;100628.09;7356208;19;20618;-60
2023/10/12 13:03:28;;;;;;;0.10;0.10;;;;;;;29.12;56.94;100625.78;7362243;19;20060;-61
2023/10/12 13:05:53;;;;;;;;;;;;;;;29.30;60.06;100620.38;7355366;19;20006;-61
2023/10/12 13:08:19;;;;;;;0.10;0.10;;;;;;;29.17;57.32;100615.41;7356298;19;20642;-59
2023/10/12 13:10:44;;;;;;;0.10;0.10;;;;;;;29.24;57.73;100630.91;7352847;19;20011;-60
2023/10/12 13:13:09;;;;;;;0.10;0.10;;;;;;;29.21;57.94;100619.47;7357839;19;20018;-60
2023/10/12 13:15:41;;;;;;;0.10;0.10;;;;;;;29.22;57.79;100617.63;7349816;19;20086;-60
2023/10/12 13:18:16;;;;;;;0.00;0.00;;;;;;;29.29;57.77;100612.44;7367107;19;20031;-60
2023/10/12 13:20:46;;;;;;;0.10;0.10;;;;;;;29.24;55.49;100604.00;7367311;19;20116;-60
2023/10/12 13:23:17;;;;;;;0.10;0.10;;;;;;;29.24;57.29;100604.00;7365031;19;20720;-60
2023/10/12 13:25:43;;;;;;;0.00;0.00;;;;;;;29.17;57.46;100601.13;7369067;19;20389;-60
2023/10/12 13:28:10;;;;;;;0.00;0.00;;;;;;;29.09;58.03;100590.28;7358746;19;20936;-60
2023/10/12 13:30:45;;;;;;;0.10;0.10;;;;;;;29.01;58.54;100587.56;7366227;19;20792;-61
2023/10/12 13:33:13;;;;;;;0.10;0.10;;;;;;;28.91;57.12;100593.84;7353630;19;20610;-61
2023/10/12 13:35:42;;;;;;;0.10;0.10;;;;;;;28.86;54.07;100600.69;7365301;19;20616;-60
2023/10/12 13:38:11;;;;;;;0.08;0.08;;;;;;;28.74;56.04;100583.09;7361376;19;20371;-60
2023/10/12 13:40:41;;;;;;;0.10;0.10;;;;;;;28.70;54.89;100583.44;7361925;19;20439;-61
2023/10/12 13:43:14;;;;;;;0.10;0.10;;;;;;;28.54;56.14;100579.72;7369131;19;20690;-60
2023/10/12 13:45:49;;;;;;;0.08;0.08;;;;;;;28.53;58.53;100578.91;7363805;19;20046;-60
2023/10/12 13:48:24;;;;;;;0.00;0.00;;;;;;;28.58;56.67;100576.59;7355835;19;20014;-60
2023/10/12 13:51:04;;;;;;;0.10;0.10;;;;;;;28.74;58.20;100564.28;7363625;19;20039;-60
2023/10/12 13:53:36;;;;;;;0.10;0.10;;;;;;;28.75;58.86;100560.63;7374409;19;20035;-60
2023/10/12 13:56:04;;;;;;;0.00;0.00;;;;;;;28.84;54.65;100554.28;7363309;19;20484;-61
2023/10/12 13:58:34;;;;;;;0.10;0.10;;;;;;;28.81;54.50;100539.34;7362115;19;20018;-60
2023/10/12 14:01:02;;;;;;;0.10;0.10;;;;;;;28.76;56.49;100546.19;7366726;19;20002;-60
2023/10/12 14:03:38;;;;;;;0.10;0.10;;;;;;;28.82;56.84;100545.56;7360988;19;20081;-60
2023/10/12 14:06:06;;;;;;;0.00;0.00;;;;;;;28.75;53.70;100544.50;7365040;19;20026;-60
2023/10/12 14:08:36;;;;;;;0.10;0.10;;;;;;;28.60;52.80;100520.88;7361253;19;20010;-61
2023/10/12 14:11:03;;;;;;;0.10;0.10;;;;;;;28.56;52.69;100519.50;7336501;19;20375;-59
2023/10/12 14:13:30;;;;;;;0.10;0.10;;;;;;;28.40;55.68;100524.72;7361450;19;20525;-60
2023/10/12 14:15:55;;;;;;;;;;;;;;;28.44;58.69;100542.22;7358647;19;20010;-59
2023/10/12 14:18:21;;;;;;;0.00;0.00;;;;;;;28.10;50.91;100548.25;7365840;19;19931;-60
2023/10/12 14:20:47;;;;;;;0.00;0.00;;;;;;;27.83;49.55;100537.53;7363145;19;20021;-60
2023/10/12 14:23:13;;;;;;;0.10;0.10;;;;;;;27.53;52.47;100541.34;7361985;19;20002;-60
2023/10/12 14:25:43;;;;;;;0.10;0.10;;;;;;;27.23;53.81;100534.41;7365152;19;20007;-60
2023/10/12 14:28:16;;;;;;;0.20;0.20;;;;;;;26.90;52.00;100528.53;7354354;19;21420;-60
2023/10/12 14:30:47;;;;;;;0.10;0.10;;;;;;;26.63;53.04;100532.81;7361113;19;20402;-60
2023/10/12 14:33:15;;;;;;;0.10;0.10;;;;;;;26.38;55.05;100522.63;7356725;19;20704;-59
2023/10/12 14:35:41;;;;;;;0.10;0.10;;;;;;;26.11;53.25;100518.81;7364618;19;20043;-60